createdAt,value
2018-12-21T00:00:47.319Z,14.57
2018-12-21T00:03:14.791Z,15.73
2018-12-21T00:05:42.250Z,16.17
2018-12-21T00:08:09.789Z,18.23
2018-12-21T00:10:37.227Z,18.40
2018-12-21T00:13:04.668Z,16.30
2018-12-21T00:15:32.142Z,15.80
2018-12-21T00:17:59.599Z,15.53
2018-12-21T00:20:27.074Z,15.77
2018-12-21T00:22:54.535Z,15.63
2018-12-21T00:25:22.031Z,16.23
2018-12-21T00:27:49.488Z,15.67
2018-12-21T00:30:18.845Z,15.63
2018-12-21T00:32:51.934Z,15.57
2018-12-21T00:35:25.118Z,15.70
2018-12-21T00:37:58.156Z,16.37
2018-12-21T00:40:31.347Z,18.23
2018-12-21T00:43:00.746Z,18.43
2018-12-21T00:45:30.124Z,16.63
2018-12-21T00:47:57.688Z,14.63
2018-12-21T00:50:25.135Z,17.90
2018-12-21T00:52:52.599Z,14.80
2018-12-21T00:55:20.068Z,14.73
2018-12-21T00:57:47.522Z,14.90
2018-12-21T01:00:18.800Z,15.93
2018-12-21T01:02:46.271Z,16.30
2018-12-21T01:05:14.815Z,17.07
2018-12-21T01:07:42.335Z,15.30
2018-12-21T01:10:09.899Z,16.20
2018-12-21T01:12:37.359Z,15.40
2018-12-21T01:15:05.452Z,14.90
2018-12-21T01:17:33.630Z,15.17
2018-12-21T01:20:01.187Z,15.63
2018-12-21T01:22:28.663Z,15.00
2018-12-21T01:24:56.115Z,16.30
2018-12-21T01:27:23.583Z,16.70
2018-12-21T01:29:51.063Z,15.70
2018-12-21T01:32:18.519Z,19.27
2018-12-21T01:34:45.956Z,15.57
2018-12-21T01:37:13.420Z,16.60
2018-12-21T01:39:40.879Z,14.77
2018-12-21T01:42:08.347Z,15.63
2018-12-21T01:44:35.816Z,17.00
2018-12-21T01:47:03.321Z,16.40
2018-12-21T01:49:30.823Z,15.53
2018-12-21T01:51:58.286Z,17.50
2018-12-21T01:54:25.751Z,15.93
2018-12-21T01:56:53.216Z,15.70
2018-12-21T01:59:20.696Z,14.90
2018-12-21T02:01:48.175Z,15.57
2018-12-21T02:04:16.105Z,15.23
2018-12-21T02:06:43.619Z,15.93
2018-12-21T02:09:11.072Z,16.77
2018-12-21T02:11:38.544Z,16.07
2018-12-21T02:14:06.003Z,15.57
2018-12-21T02:16:33.471Z,15.73
2018-12-21T02:19:00.951Z,15.80
2018-12-21T02:21:28.402Z,16.67
2018-12-21T02:23:55.848Z,16.87
2018-12-21T02:26:23.337Z,16.83
2018-12-21T02:28:51.640Z,16.77
2018-12-21T02:31:19.113Z,16.80
2018-12-21T02:33:46.584Z,16.27
2018-12-21T02:36:14.166Z,16.37
2018-12-21T02:38:41.609Z,16.33
2018-12-21T02:41:09.086Z,17.20
2018-12-21T02:43:36.544Z,16.10
2018-12-21T02:46:04.015Z,16.03
2018-12-21T02:48:31.480Z,15.20
2018-12-21T02:50:58.943Z,16.40
2018-12-21T02:53:26.393Z,15.23
2018-12-21T02:55:53.841Z,16.87
2018-12-21T02:58:21.307Z,16.63
2018-12-21T03:00:48.768Z,14.83
2018-12-21T03:03:16.244Z,14.33
2018-12-21T03:05:43.688Z,15.17
2018-12-21T03:08:11.175Z,14.50
2018-12-21T03:10:38.646Z,13.87
2018-12-21T03:13:06.204Z,13.60
2018-12-21T03:15:33.680Z,13.50
2018-12-21T03:18:01.190Z,13.83
2018-12-21T03:20:28.619Z,14.27
2018-12-21T03:22:56.063Z,13.50
2018-12-21T03:27:57.863Z,12.87
2018-12-21T03:30:25.358Z,11.93
2018-12-21T03:32:53.452Z,12.10
2018-12-21T03:35:21.833Z,12.10
2018-12-21T03:37:49.369Z,10.93
2018-12-21T03:40:16.935Z,12.23
2018-12-21T03:42:44.402Z,12.07
2018-12-21T03:45:11.878Z,11.50
2018-12-21T03:47:39.348Z,11.90
2018-12-21T03:50:06.858Z,10.33
2018-12-21T03:52:34.404Z,10.20
2018-12-21T03:55:01.899Z,12.87
2018-12-21T03:57:29.376Z,9.50
2018-12-21T03:59:56.832Z,10.90
2018-12-21T04:02:24.291Z,12.33
2018-12-21T04:04:51.745Z,11.70
2018-12-21T04:07:19.203Z,10.13
2018-12-21T04:09:47.174Z,10.77
2018-12-21T04:12:14.621Z,10.07
2018-12-21T04:14:42.095Z,10.53
2018-12-21T04:17:10.344Z,9.37
2018-12-21T04:19:37.825Z,9.13
2018-12-21T04:22:06.197Z,9.73
2018-12-21T04:24:33.671Z,9.87
2018-12-21T04:27:01.204Z,8.43
2018-12-21T04:29:28.656Z,9.80
2018-12-21T04:31:56.099Z,7.37
2018-12-21T04:34:23.563Z,7.87
2018-12-21T04:36:51.051Z,8.33
2018-12-21T04:39:18.555Z,8.83
2018-12-21T04:41:46.040Z,10.40
2018-12-21T04:44:13.509Z,10.17
2018-12-21T04:46:41.031Z,9.87
2018-12-21T04:49:08.488Z,10.23
2018-12-21T04:51:35.961Z,10.70
2018-12-21T04:54:03.427Z,8.00
2018-12-21T04:56:30.900Z,8.90
2018-12-21T04:58:58.450Z,7.60
2018-12-21T05:01:26.029Z,8.40
2018-12-21T05:03:53.483Z,9.90
2018-12-21T05:06:21.450Z,8.63
2018-12-21T05:08:48.907Z,9.10
2018-12-21T05:11:17.151Z,9.60
2018-12-21T05:13:44.719Z,8.47
2018-12-21T05:16:12.182Z,10.43
2018-12-21T05:18:39.839Z,6.97
2018-12-21T05:21:07.295Z,6.47
2018-12-21T05:23:34.763Z,7.90
2018-12-21T05:26:02.216Z,8.03
2018-12-21T05:28:29.671Z,7.20
2018-12-21T05:30:57.139Z,7.43
2018-12-21T05:33:24.605Z,8.03
2018-12-21T05:35:52.152Z,6.33
2018-12-21T05:38:19.627Z,8.43
2018-12-21T05:40:47.071Z,6.33
2018-12-21T05:43:14.587Z,6.83
2018-12-21T05:45:42.099Z,8.40
2018-12-21T05:48:09.559Z,6.27
2018-12-21T05:50:37.095Z,6.53
2018-12-21T05:53:04.567Z,5.47
2018-12-21T05:55:32.035Z,6.10
2018-12-21T05:57:59.590Z,7.57
2018-12-21T06:00:27.050Z,4.87
2018-12-21T06:02:54.515Z,5.80
2018-12-21T06:05:21.959Z,5.47
2018-12-21T06:07:49.379Z,4.47
2018-12-21T06:10:16.832Z,4.93
2018-12-21T06:12:44.267Z,5.77
2018-12-21T06:15:12.358Z,5.43
2018-12-21T06:17:40.018Z,7.47
2018-12-21T06:20:07.438Z,4.60
2018-12-21T06:22:34.907Z,5.77
2018-12-21T06:25:02.377Z,4.43
2018-12-21T06:27:29.823Z,4.93
2018-12-21T06:29:57.270Z,5.00
2018-12-21T06:32:24.828Z,9.57
2018-12-21T06:34:52.263Z,8.10
2018-12-21T06:37:19.760Z,6.50
2018-12-21T06:39:47.207Z,4.70
2018-12-21T06:42:14.662Z,5.20
2018-12-21T06:44:43.373Z,6.80
2018-12-21T06:47:10.808Z,5.83
2018-12-21T06:49:38.418Z,7.60
2018-12-21T06:52:05.887Z,9.13
2018-12-21T06:54:33.363Z,6.53
2018-12-21T06:57:00.841Z,5.13
2018-12-21T06:59:28.275Z,5.47
2018-12-21T07:01:55.751Z,6.87
2018-12-21T07:04:23.248Z,8.97
2018-12-21T07:06:50.707Z,5.87
2018-12-21T07:09:18.156Z,5.80
2018-12-21T07:11:45.663Z,7.20
2018-12-21T07:14:13.140Z,7.53
2018-12-21T07:16:40.603Z,7.43
2018-12-21T07:19:08.051Z,6.60
2018-12-21T07:21:35.531Z,8.10
2018-12-21T07:24:02.987Z,4.40
2018-12-21T07:26:30.423Z,3.30
2018-12-21T07:28:57.868Z,4.97
2018-12-21T07:31:25.351Z,5.53
2018-12-21T07:33:52.803Z,6.57
2018-12-21T07:36:20.260Z,6.70
2018-12-21T07:38:47.720Z,5.20
2018-12-21T07:41:15.183Z,9.83
2018-12-21T07:43:42.621Z,5.23
2018-12-21T07:46:10.087Z,6.87
2018-12-21T07:48:37.524Z,5.40
2018-12-21T07:51:04.950Z,6.40
2018-12-21T07:53:35.902Z,6.80
2018-12-21T07:56:01.920Z,5.33
2018-12-21T07:58:29.391Z,6.87
2018-12-21T08:00:56.828Z,6.90
2018-12-21T08:03:24.276Z,6.60
2018-12-21T08:05:51.771Z,6.97
2018-12-21T08:08:19.243Z,6.13
2018-12-21T08:10:46.731Z,5.13
2018-12-21T08:13:14.171Z,4.10
2018-12-21T08:15:41.634Z,7.37
2018-12-21T08:18:09.079Z,6.47
2018-12-21T08:20:36.544Z,5.87
2018-12-21T08:23:03.995Z,10.93
2018-12-21T08:25:31.460Z,7.57
2018-12-21T08:27:58.910Z,7.83
2018-12-21T08:30:26.366Z,4.93
2018-12-21T08:32:53.824Z,6.03
2018-12-21T08:35:21.280Z,7.33
2018-12-21T08:37:48.768Z,8.50
2018-12-21T08:40:16.201Z,7.43
2018-12-21T08:42:43.684Z,7.77
2018-12-21T08:45:11.226Z,8.27
2018-12-21T08:47:38.790Z,5.30
2018-12-21T08:50:07.165Z,7.40
2018-12-21T08:52:34.676Z,6.97
2018-12-21T08:55:02.167Z,6.70
2018-12-21T08:57:29.650Z,5.37
2018-12-21T08:59:57.169Z,9.17
2018-12-21T09:02:24.635Z,6.47
2018-12-21T09:04:52.111Z,10.67
2018-12-21T09:07:19.599Z,5.10
2018-12-21T09:09:47.044Z,6.30
2018-12-21T09:12:14.541Z,8.30
2018-12-21T09:14:42.032Z,5.47
2018-12-21T09:17:09.545Z,10.90
2018-12-21T09:19:37.127Z,8.83
2018-12-21T09:22:04.622Z,6.60
2018-12-21T09:24:32.120Z,8.20
2018-12-21T09:26:59.624Z,6.27
2018-12-21T09:29:27.175Z,10.10
2018-12-21T09:31:54.757Z,7.17
2018-12-21T09:34:22.467Z,7.93
2018-12-21T09:36:50.729Z,6.93
2018-12-21T09:39:18.172Z,7.40
2018-12-21T09:41:45.719Z,9.63
2018-12-21T09:44:13.176Z,11.27
2018-12-21T09:46:41.340Z,9.30
2018-12-21T09:49:08.787Z,8.90
2018-12-21T09:51:36.312Z,8.93
2018-12-21T09:54:09.884Z,7.83
2018-12-21T09:56:33.333Z,9.43
2018-12-21T09:59:00.773Z,7.40
2018-12-21T10:01:28.329Z,8.10
2018-12-21T10:03:55.808Z,7.73
2018-12-21T10:06:24.093Z,9.20
2018-12-21T10:08:51.610Z,6.00
2018-12-21T10:11:19.047Z,7.63
2018-12-21T10:13:46.535Z,9.07
2018-12-21T10:16:13.973Z,7.67
2018-12-21T10:18:41.502Z,10.50
2018-12-21T10:21:09.769Z,12.80
2018-12-21T10:23:37.276Z,7.77
2018-12-21T10:26:04.856Z,11.07
2018-12-21T10:28:33.339Z,8.57
2018-12-21T10:31:00.799Z,9.83
2018-12-21T10:33:28.274Z,8.57
2018-12-21T10:35:55.759Z,8.73
2018-12-21T10:38:24.426Z,9.23
2018-12-21T10:40:53.057Z,12.50
2018-12-21T10:43:20.533Z,9.97
2018-12-21T10:45:47.973Z,8.50
2018-12-21T10:48:15.423Z,7.40
2018-12-21T10:50:43.926Z,8.80
2018-12-21T10:53:11.409Z,9.87
2018-12-21T10:55:38.984Z,10.27
2018-12-21T10:58:06.432Z,9.73
2018-12-21T11:00:34.239Z,8.07
2018-12-21T11:03:01.875Z,9.57
2018-12-21T11:05:29.318Z,7.07
2018-12-21T11:07:56.877Z,6.33
2018-12-21T11:10:24.336Z,7.53
2018-12-21T11:12:52.579Z,6.03
2018-12-21T11:15:20.059Z,6.53
2018-12-21T11:17:47.524Z,5.70
2018-12-21T11:20:14.980Z,7.27
2018-12-21T11:22:42.425Z,8.57
2018-12-21T11:25:12.431Z,4.90
2018-12-21T11:27:40.544Z,8.17
2018-12-21T11:30:08.843Z,6.90
2018-12-21T11:32:36.295Z,11.97
2018-12-21T11:35:04.219Z,8.67
2018-12-21T11:37:31.647Z,7.50
2018-12-21T11:39:59.080Z,9.37
2018-12-21T11:42:34.111Z,6.67
2018-12-21T11:45:02.334Z,12.07
2018-12-21T11:47:30.597Z,9.97
2018-12-21T11:49:58.131Z,8.27
2018-12-21T11:52:25.700Z,9.87
2018-12-21T11:54:53.990Z,7.90
2018-12-21T11:57:21.458Z,5.87
2018-12-21T11:59:48.925Z,6.33
2018-12-21T12:02:19.759Z,8.27
2018-12-21T12:04:45.835Z,11.80
2018-12-21T12:07:14.211Z,10.17
2018-12-21T12:09:41.656Z,7.23
2018-12-21T12:12:09.119Z,5.17
2018-12-21T12:14:36.559Z,6.83
2018-12-21T12:17:04.023Z,7.50
2018-12-21T12:19:32.123Z,6.13
2018-12-21T12:21:59.610Z,11.00
2018-12-21T12:24:27.056Z,8.97
2018-12-21T12:26:54.631Z,7.50
2018-12-21T12:29:22.165Z,5.43
2018-12-21T12:31:49.651Z,6.80
2018-12-21T12:34:17.123Z,7.20
2018-12-21T12:36:44.575Z,5.27
2018-12-21T12:39:12.170Z,6.80
2018-12-21T12:41:39.701Z,8.17
2018-12-21T12:44:07.156Z,5.43
2018-12-21T12:46:34.645Z,6.67
2018-12-21T12:49:02.140Z,6.53
2018-12-21T12:51:29.593Z,8.07
2018-12-21T12:53:57.281Z,6.43
2018-12-21T12:56:24.728Z,8.80
2018-12-21T12:58:52.333Z,6.63
2018-12-21T13:01:19.791Z,5.07
2018-12-21T13:03:47.224Z,6.40
2018-12-21T13:06:14.706Z,7.43
2018-12-21T13:08:42.176Z,11.20
2018-12-21T13:11:09.635Z,7.33
2018-12-21T13:13:37.087Z,8.20
2018-12-21T13:16:04.552Z,5.23
2018-12-21T13:18:31.986Z,5.27
2018-12-21T13:20:59.513Z,6.47
2018-12-21T13:23:26.999Z,5.73
2018-12-21T13:25:54.512Z,4.00
2018-12-21T13:28:21.991Z,3.97
2018-12-21T13:30:49.468Z,4.40
2018-12-21T13:33:16.947Z,5.43
2018-12-21T13:35:44.438Z,3.60
2018-12-21T13:38:11.931Z,6.63
2018-12-21T13:40:40.251Z,4.30
2018-12-21T13:43:07.748Z,3.63
2018-12-21T13:45:35.208Z,3.67
2018-12-21T13:48:02.675Z,6.20
2018-12-21T13:50:30.141Z,9.10
2018-12-21T13:52:57.578Z,4.50
2018-12-21T13:55:25.116Z,5.30
2018-12-21T13:57:52.540Z,3.37
2018-12-21T14:00:20.019Z,5.30
2018-12-21T14:02:47.558Z,3.23
2018-12-21T14:05:15.063Z,3.93
2018-12-21T14:07:42.495Z,5.60
2018-12-21T14:10:10.379Z,4.53
2018-12-21T14:12:37.917Z,4.70
2018-12-21T14:15:06.190Z,6.63
2018-12-21T14:17:33.758Z,3.53
2018-12-21T14:20:01.267Z,4.47
2018-12-21T14:22:28.733Z,4.23
2018-12-21T14:24:56.239Z,3.53
2018-12-21T14:27:23.688Z,7.93
2018-12-21T14:29:51.181Z,11.00
2018-12-21T14:32:18.631Z,3.03
2018-12-21T14:34:46.088Z,3.17
2018-12-21T14:37:13.565Z,4.13
2018-12-21T14:39:41.019Z,3.40
2018-12-21T14:42:08.548Z,2.77
2018-12-21T14:44:36.055Z,3.20
2018-12-21T14:47:03.534Z,3.00
2018-12-21T14:49:30.972Z,3.10
2018-12-21T14:51:58.428Z,4.13
2018-12-21T14:54:25.933Z,3.57
2018-12-21T14:56:53.390Z,4.33
2018-12-21T14:59:20.934Z,11.53
2018-12-21T15:01:48.356Z,6.60
2018-12-21T15:04:15.867Z,4.40
2018-12-21T15:06:43.711Z,3.47
2018-12-21T15:09:11.187Z,3.53
2018-12-21T15:11:39.219Z,3.93
2018-12-21T15:14:06.719Z,4.13
2018-12-21T15:16:34.335Z,3.20
2018-12-21T15:19:01.758Z,3.00
2018-12-21T15:21:29.329Z,3.83
2018-12-21T15:23:56.807Z,4.53
2018-12-21T15:26:24.267Z,6.30
2018-12-21T15:28:52.013Z,5.10
2018-12-21T15:31:19.554Z,4.37
2018-12-21T15:33:47.005Z,5.83
2018-12-21T15:36:14.586Z,6.03
2018-12-21T15:38:42.775Z,4.23
2018-12-21T15:41:10.278Z,5.00
2018-12-21T15:43:37.813Z,3.60
2018-12-21T15:46:05.331Z,3.50
2018-12-21T15:48:32.970Z,5.30
2018-12-21T15:51:00.488Z,6.43
2018-12-21T15:53:28.855Z,6.03
2018-12-21T15:55:56.421Z,9.33
2018-12-21T15:58:23.911Z,10.47
2018-12-21T16:00:51.399Z,5.17
2018-12-21T16:03:18.974Z,3.10
2018-12-21T16:05:46.563Z,5.97
2018-12-21T16:08:14.053Z,3.70
2018-12-21T16:10:41.512Z,3.50
2018-12-21T16:13:08.995Z,3.53
2018-12-21T16:15:36.496Z,3.50
2018-12-21T16:18:03.952Z,3.80
2018-12-21T16:20:31.453Z,3.70
2018-12-21T16:22:59.010Z,4.47
2018-12-21T16:25:26.515Z,3.30
2018-12-21T16:27:53.964Z,3.40
2018-12-21T16:30:21.471Z,3.40
2018-12-21T16:32:48.937Z,2.90
2018-12-21T16:35:16.397Z,3.90
2018-12-21T16:37:44.071Z,2.57
2018-12-21T16:40:11.540Z,3.00
2018-12-21T16:42:39.063Z,3.10
2018-12-21T16:45:08.263Z,3.73
2018-12-21T16:47:35.829Z,4.03
2018-12-21T16:50:06.045Z,4.20
2018-12-21T16:52:33.503Z,4.10
2018-12-21T16:55:00.980Z,4.60
2018-12-21T16:57:28.407Z,5.07
2018-12-21T16:59:55.863Z,7.37
2018-12-21T17:02:23.339Z,4.80
2018-12-21T17:04:50.793Z,4.63
2018-12-21T17:07:18.254Z,4.50
2018-12-21T17:09:46.341Z,6.57
2018-12-21T17:12:13.771Z,4.87
2018-12-21T17:14:41.218Z,6.00
2018-12-21T17:17:08.660Z,6.30
2018-12-21T17:19:36.147Z,6.17
2018-12-21T17:22:03.655Z,6.37
2018-12-21T17:24:31.258Z,5.70
2018-12-21T17:26:58.715Z,6.53
2018-12-21T17:29:26.190Z,5.20
2018-12-21T17:31:53.812Z,5.50
2018-12-21T17:34:21.384Z,6.00
2018-12-21T17:36:48.851Z,7.97
2018-12-21T17:39:16.319Z,6.17
2018-12-21T17:41:43.804Z,4.90
2018-12-21T17:44:13.164Z,6.50
2018-12-21T17:46:40.842Z,2.50
2018-12-21T17:49:08.317Z,5.50
2018-12-21T17:51:35.864Z,3.70
2018-12-21T17:54:04.827Z,5.53
2018-12-21T17:56:32.560Z,3.43
2018-12-21T17:59:00.142Z,6.10
2018-12-21T18:01:27.742Z,6.63
2018-12-21T18:03:55.188Z,6.10
2018-12-21T18:06:22.667Z,4.00
2018-12-21T18:08:50.286Z,2.10
2018-12-21T18:11:17.726Z,3.00
2018-12-21T18:13:45.207Z,3.50
2018-12-21T18:16:12.695Z,1.70
2018-12-21T18:18:40.199Z,2.33
2018-12-21T18:21:07.663Z,4.10
2018-12-21T18:23:35.161Z,3.27
2018-12-21T18:26:02.656Z,3.83
2018-12-21T18:28:30.115Z,2.53
2018-12-21T18:31:00.415Z,2.60
2018-12-21T18:33:27.901Z,2.90
2018-12-21T18:35:56.569Z,4.17
2018-12-21T18:38:24.243Z,2.40
2018-12-21T18:40:51.840Z,5.63
2018-12-21T18:43:19.358Z,4.87
2018-12-21T18:45:46.839Z,5.10
2018-12-21T18:48:14.369Z,4.50
2018-12-21T18:50:41.839Z,6.13
2018-12-21T18:53:09.364Z,4.17
2018-12-21T18:55:36.810Z,3.73
2018-12-21T18:58:04.276Z,2.30
2018-12-21T19:00:31.708Z,6.67
2018-12-21T19:03:00.586Z,5.37
2018-12-21T19:05:28.228Z,6.47
2018-12-21T19:07:55.700Z,7.00
2018-12-21T19:10:23.154Z,4.73
2018-12-21T19:12:50.606Z,7.80
2018-12-21T19:15:19.008Z,2.47
2018-12-21T19:17:46.554Z,1.80
2018-12-21T19:20:14.015Z,7.00
2018-12-21T19:22:41.488Z,11.53
2018-12-21T19:25:09.741Z,6.73
2018-12-21T19:27:37.194Z,11.60
2018-12-21T19:30:06.654Z,9.93
2018-12-21T19:32:34.164Z,1.97
2018-12-21T19:35:01.635Z,4.73
2018-12-21T19:37:29.115Z,4.03
2018-12-21T19:39:56.576Z,3.53
2018-12-21T19:42:24.031Z,4.07
2018-12-21T19:44:51.479Z,10.43
2018-12-21T19:47:19.135Z,2.37
2018-12-21T19:49:46.578Z,3.77
2018-12-21T19:52:14.050Z,6.50
2018-12-21T19:54:41.523Z,3.07
2018-12-21T19:57:08.976Z,3.07
2018-12-21T19:59:36.444Z,5.27
2018-12-21T20:02:03.926Z,11.20
2018-12-21T20:04:31.399Z,2.50
2018-12-21T20:06:58.859Z,11.83
2018-12-21T20:09:26.344Z,6.13
2018-12-21T20:11:54.548Z,4.57
2018-12-21T20:14:22.058Z,10.00
2018-12-21T20:16:49.582Z,7.57
2018-12-21T20:19:17.021Z,8.20
2018-12-21T20:21:44.548Z,7.03
2018-12-21T20:24:12.022Z,2.30
2018-12-21T20:26:40.000Z,8.00
2018-12-21T20:29:07.454Z,10.90
2018-12-21T20:31:35.068Z,3.27
2018-12-21T20:34:02.568Z,12.30
2018-12-21T20:36:30.010Z,5.27
2018-12-21T20:38:57.672Z,3.07
2018-12-21T20:41:25.931Z,3.90
2018-12-21T20:43:53.368Z,4.50
2018-12-21T20:46:20.862Z,4.87
2018-12-21T20:48:48.299Z,2.67
2018-12-21T20:51:15.792Z,4.80
2018-12-21T20:53:43.343Z,4.17
2018-12-21T20:56:10.810Z,3.43
2018-12-21T20:58:38.259Z,3.97
2018-12-21T21:01:05.752Z,3.33
2018-12-21T21:03:33.271Z,3.37
2018-12-21T21:06:00.729Z,2.87
2018-12-21T21:08:28.172Z,4.23
2018-12-21T21:10:55.636Z,4.50
2018-12-21T21:13:23.101Z,2.70
2018-12-21T21:15:50.535Z,2.23
2018-12-21T21:18:17.979Z,3.53
2018-12-21T21:20:45.519Z,2.07
2018-12-21T21:23:12.965Z,4.50
2018-12-21T21:25:40.411Z,2.93
2018-12-21T21:28:07.918Z,3.10
2018-12-21T21:30:35.364Z,2.00
2018-12-21T21:33:02.853Z,5.47
2018-12-21T21:35:30.328Z,4.17
2018-12-21T21:37:57.969Z,3.17
2018-12-21T21:40:25.415Z,2.17
2018-12-21T21:42:57.539Z,4.17
2018-12-21T21:45:22.428Z,4.40
2018-12-21T21:47:49.940Z,2.63
2018-12-21T21:50:17.520Z,1.57
2018-12-21T21:52:45.016Z,2.43
2018-12-21T21:55:12.952Z,2.70
2018-12-21T21:57:40.467Z,1.20
2018-12-21T22:00:10.588Z,2.70
2018-12-21T22:02:38.167Z,2.70
2018-12-21T22:05:05.627Z,1.93
2018-12-21T22:07:33.105Z,2.40
2018-12-21T22:10:00.563Z,2.07
2018-12-21T22:12:28.118Z,2.13
2018-12-21T22:14:55.546Z,2.77
2018-12-21T22:17:23.002Z,2.80
2018-12-21T22:19:50.466Z,2.30
2018-12-21T22:22:17.980Z,1.70
2018-12-21T22:24:45.431Z,2.97
2018-12-21T22:27:12.880Z,5.60
2018-12-21T22:29:40.345Z,2.87
2018-12-21T22:32:07.808Z,0.80
2018-12-21T22:34:35.252Z,2.57
2018-12-21T22:37:02.712Z,1.77
2018-12-21T22:39:30.151Z,1.77
2018-12-21T22:41:57.617Z,1.33
2018-12-21T22:44:25.087Z,1.57
2018-12-21T22:46:52.532Z,2.03
2018-12-21T22:49:19.976Z,1.10
2018-12-21T22:51:47.541Z,1.47
2018-12-21T22:54:14.994Z,4.27
2018-12-21T22:56:42.483Z,2.97
2018-12-21T22:59:09.944Z,2.57
2018-12-21T23:01:37.428Z,1.17
2018-12-21T23:04:04.882Z,4.40
2018-12-21T23:06:32.359Z,2.23
2018-12-21T23:08:59.879Z,3.03
2018-12-21T23:11:27.359Z,2.40
2018-12-21T23:13:54.861Z,1.60
2018-12-21T23:16:22.384Z,1.70
2018-12-21T23:18:49.875Z,2.53
2018-12-21T23:21:17.336Z,1.90
2018-12-21T23:23:44.765Z,2.33
2018-12-21T23:26:12.211Z,2.07
2018-12-21T23:28:39.681Z,2.17
2018-12-21T23:31:07.144Z,1.63
2018-12-21T23:33:34.602Z,1.90
2018-12-21T23:36:02.064Z,2.03
2018-12-21T23:38:29.540Z,1.63
2018-12-21T23:40:56.956Z,2.43
2018-12-21T23:43:24.425Z,2.80
2018-12-21T23:45:51.907Z,1.53
2018-12-21T23:48:19.327Z,3.13
2018-12-21T23:50:46.779Z,1.23
2018-12-21T23:53:14.260Z,2.10
2018-12-21T23:55:41.767Z,1.77
2018-12-21T23:58:13.614Z,1.67
